sensor_id;sensor_type;location;lat;lon;timestamp;P1;durP1;ratioP1;P2;durP2;ratioP2
5951;SDS011;3001;42.622;23.194;2023-04-03T00:00:36;1.00;;;1.00;;
5951;SDS011;3001;42.622;23.194;2023-04-03T00:03:03;1.00;;;0.70;;
5951;SDS011;3001;42.622;23.194;2023-04-03T00:05:29;0.70;;;0.70;;
5951;SDS011;3001;42.622;23.194;2023-04-03T00:07:57;0.77;;;0.77;;
5951;SDS011;3001;42.622;23.194;2023-04-03T00:10:24;0.70;;;0.60;;
5951;SDS011;3001;42.622;23.194;2023-04-03T00:12:51;0.67;;;0.67;;
5951;SDS011;3001;42.622;23.194;2023-04-03T00:15:17;0.80;;;0.80;;
5951;SDS011;3001;42.622;23.194;2023-04-03T00:17:44;0.93;;;0.93;;
5951;SDS011;3001;42.622;23.194;2023-04-03T00:20:11;0.77;;;0.77;;
5951;SDS011;3001;42.622;23.194;2023-04-03T00:22:38;0.97;;;0.97;;
5951;SDS011;3001;42.622;23.194;2023-04-03T00:25:07;0.80;;;0.70;;
5951;SDS011;3001;42.622;23.194;2023-04-03T00:27:35;0.90;;;0.90;;
5951;SDS011;3001;42.622;23.194;2023-04-03T00:30:02;0.90;;;0.90;;
5951;SDS011;3001;42.622;23.194;2023-04-03T00:32:30;2.17;;;0.90;;
5951;SDS011;3001;42.622;23.194;2023-04-03T00:34:56;0.73;;;0.73;;
5951;SDS011;3001;42.622;23.194;2023-04-03T00:37:23;0.60;;;0.60;;
5951;SDS011;3001;42.622;23.194;2023-04-03T00:39:50;0.83;;;0.83;;
5951;SDS011;3001;42.622;23.194;2023-04-03T00:42:18;0.77;;;0.77;;
5951;SDS011;3001;42.622;23.194;2023-04-03T00:48:00;0.80;;;0.80;;
5951;SDS011;3001;42.622;23.194;2023-04-03T00:50:30;1.07;;;0.80;;
5951;SDS011;3001;42.622;23.194;2023-04-03T00:53:00;1.63;;;0.90;;
5951;SDS011;3001;42.622;23.194;2023-04-03T00:55:27;0.60;;;0.60;;
5951;SDS011;3001;42.622;23.194;2023-04-03T00:57:57;0.60;;;0.60;;
5951;SDS011;3001;42.622;23.194;2023-04-03T01:00:25;0.60;;;0.60;;
5951;SDS011;3001;42.622;23.194;2023-04-03T01:02:52;2.60;;;0.97;;
5951;SDS011;3001;42.622;23.194;2023-04-03T01:05:20;0.80;;;0.80;;
5951;SDS011;3001;42.622;23.194;2023-04-03T01:07:47;0.50;;;0.50;;
5951;SDS011;3001;42.622;23.194;2023-04-03T01:10:16;0.67;;;0.67;;
5951;SDS011;3001;42.622;23.194;2023-04-03T01:12:45;1.17;;;1.00;;
5951;SDS011;3001;42.622;23.194;2023-04-03T01:15:14;0.70;;;0.70;;
5951;SDS011;3001;42.622;23.194;2023-04-03T01:17:43;2.83;;;0.93;;
5951;SDS011;3001;42.622;23.194;2023-04-03T01:25:59;1.17;;;0.80;;
5951;SDS011;3001;42.622;23.194;2023-04-03T01:28:26;1.13;;;1.10;;
5951;SDS011;3001;42.622;23.194;2023-04-03T01:30:58;1.30;;;1.20;;
5951;SDS011;3001;42.622;23.194;2023-04-03T01:33:31;0.80;;;0.80;;
5951;SDS011;3001;42.622;23.194;2023-04-03T01:35:58;1.00;;;1.00;;
5951;SDS011;3001;42.622;23.194;2023-04-03T01:38:26;1.03;;;1.03;;
5951;SDS011;3001;42.622;23.194;2023-04-03T01:40:53;0.80;;;0.80;;
5951;SDS011;3001;42.622;23.194;2023-04-03T01:43:20;0.80;;;0.80;;
5951;SDS011;3001;42.622;23.194;2023-04-03T01:45:46;0.70;;;0.70;;
5951;SDS011;3001;42.622;23.194;2023-04-03T01:48:14;1.10;;;1.00;;
5951;SDS011;3001;42.622;23.194;2023-04-03T01:50:42;1.37;;;0.70;;
5951;SDS011;3001;42.622;23.194;2023-04-03T01:53:09;0.80;;;0.80;;
5951;SDS011;3001;42.622;23.194;2023-04-03T01:55:36;1.90;;;0.60;;
5951;SDS011;3001;42.622;23.194;2023-04-03T01:58:03;0.90;;;0.90;;
5951;SDS011;3001;42.622;23.194;2023-04-03T02:00:30;0.80;;;0.80;;
5951;SDS011;3001;42.622;23.194;2023-04-03T02:02:56;0.90;;;0.90;;
5951;SDS011;3001;42.622;23.194;2023-04-03T02:05:23;0.80;;;0.80;;
5951;SDS011;3001;42.622;23.194;2023-04-03T02:07:51;0.80;;;0.80;;
5951;SDS011;3001;42.622;23.194;2023-04-03T02:10:18;0.90;;;0.90;;
5951;SDS011;3001;42.622;23.194;2023-04-03T02:12:44;2.63;;;1.10;;
5951;SDS011;3001;42.622;23.194;2023-04-03T02:15:11;0.70;;;0.70;;
5951;SDS011;3001;42.622;23.194;2023-04-03T02:17:38;1.10;;;1.10;;
5951;SDS011;3001;42.622;23.194;2023-04-03T02:20:05;3.23;;;3.03;;
5951;SDS011;3001;42.622;23.194;2023-04-03T02:22:32;1.40;;;1.40;;
5951;SDS011;3001;42.622;23.194;2023-04-03T02:25:00;0.90;;;0.70;;
5951;SDS011;3001;42.622;23.194;2023-04-03T02:27:27;0.90;;;0.90;;
5951;SDS011;3001;42.622;23.194;2023-04-03T02:29:54;0.97;;;0.97;;
5951;SDS011;3001;42.622;23.194;2023-04-03T02:32:20;0.90;;;0.90;;
5951;SDS011;3001;42.622;23.194;2023-04-03T02:34:47;1.63;;;0.90;;
5951;SDS011;3001;42.622;23.194;2023-04-03T02:37:14;1.00;;;1.00;;
5951;SDS011;3001;42.622;23.194;2023-04-03T02:39:40;1.00;;;1.00;;
5951;SDS011;3001;42.622;23.194;2023-04-03T02:42:08;0.80;;;0.80;;
5951;SDS011;3001;42.622;23.194;2023-04-03T02:44:35;1.00;;;1.00;;
5951;SDS011;3001;42.622;23.194;2023-04-03T02:47:02;0.80;;;0.80;;
5951;SDS011;3001;42.622;23.194;2023-04-03T02:49:28;0.70;;;0.70;;
5951;SDS011;3001;42.622;23.194;2023-04-03T02:51:55;1.30;;;1.30;;
5951;SDS011;3001;42.622;23.194;2023-04-03T02:54:26;1.00;;;1.00;;
5951;SDS011;3001;42.622;23.194;2023-04-03T02:56:55;2.93;;;1.10;;
5951;SDS011;3001;42.622;23.194;2023-04-03T02:59:24;0.87;;;0.87;;
5951;SDS011;3001;42.622;23.194;2023-04-03T03:01:50;1.07;;;1.07;;
5951;SDS011;3001;42.622;23.194;2023-04-03T03:04:17;0.93;;;0.93;;
5951;SDS011;3001;42.622;23.194;2023-04-03T03:06:44;1.10;;;1.10;;
5951;SDS011;3001;42.622;23.194;2023-04-03T03:09:11;1.97;;;0.93;;
5951;SDS011;3001;42.622;23.194;2023-04-03T03:11:38;1.00;;;1.00;;
5951;SDS011;3001;42.622;23.194;2023-04-03T03:14:05;1.20;;;1.20;;
5951;SDS011;3001;42.622;23.194;2023-04-03T03:16:33;1.03;;;1.03;;
5951;SDS011;3001;42.622;23.194;2023-04-03T03:19:00;0.90;;;0.90;;
5951;SDS011;3001;42.622;23.194;2023-04-03T03:21:27;1.00;;;1.00;;
5951;SDS011;3001;42.622;23.194;2023-04-03T03:23:54;0.83;;;0.83;;
5951;SDS011;3001;42.622;23.194;2023-04-03T03:26:20;1.03;;;1.03;;
5951;SDS011;3001;42.622;23.194;2023-04-03T03:28:47;0.83;;;0.83;;
5951;SDS011;3001;42.622;23.194;2023-04-03T03:31:13;1.00;;;1.00;;
5951;SDS011;3001;42.622;23.194;2023-04-03T03:33:42;1.43;;;1.00;;
5951;SDS011;3001;42.622;23.194;2023-04-03T03:36:09;0.93;;;0.90;;
5951;SDS011;3001;42.622;23.194;2023-04-03T03:38:36;1.10;;;1.10;;
5951;SDS011;3001;42.622;23.194;2023-04-03T03:41:03;0.90;;;0.90;;
5951;SDS011;3001;42.622;23.194;2023-04-03T03:43:30;0.80;;;0.80;;
5951;SDS011;3001;42.622;23.194;2023-04-03T03:45:57;1.07;;;1.07;;
5951;SDS011;3001;42.622;23.194;2023-04-03T03:48:23;1.10;;;1.00;;
5951;SDS011;3001;42.622;23.194;2023-04-03T03:50:51;1.20;;;1.20;;
5951;SDS011;3001;42.622;23.194;2023-04-03T03:53:18;1.90;;;1.00;;
5951;SDS011;3001;42.622;23.194;2023-04-03T03:55:45;1.87;;;1.10;;
5951;SDS011;3001;42.622;23.194;2023-04-03T03:58:12;1.33;;;1.30;;
5951;SDS011;3001;42.622;23.194;2023-04-03T04:00:38;1.20;;;1.20;;
5951;SDS011;3001;42.622;23.194;2023-04-03T04:03:05;0.97;;;0.97;;
5951;SDS011;3001;42.622;23.194;2023-04-03T04:05:32;1.03;;;1.00;;
5951;SDS011;3001;42.622;23.194;2023-04-03T04:08:00;1.20;;;1.20;;
5951;SDS011;3001;42.622;23.194;2023-04-03T04:10:26;1.67;;;1.30;;
5951;SDS011;3001;42.622;23.194;2023-04-03T04:12:53;1.40;;;1.40;;
5951;SDS011;3001;42.622;23.194;2023-04-03T04:15:20;1.17;;;1.17;;
5951;SDS011;3001;42.622;23.194;2023-04-03T04:17:48;1.33;;;1.27;;
5951;SDS011;3001;42.622;23.194;2023-04-03T04:20:14;2.43;;;1.20;;
5951;SDS011;3001;42.622;23.194;2023-04-03T04:22:41;1.10;;;1.10;;
5951;SDS011;3001;42.622;23.194;2023-04-03T04:25:09;3.57;;;1.90;;
5951;SDS011;3001;42.622;23.194;2023-04-03T04:27:36;1.40;;;1.40;;
5951;SDS011;3001;42.622;23.194;2023-04-03T04:30:03;1.70;;;1.60;;
5951;SDS011;3001;42.622;23.194;2023-04-03T04:32:31;1.73;;;1.63;;
5951;SDS011;3001;42.622;23.194;2023-04-03T04:34:57;1.70;;;1.60;;
5951;SDS011;3001;42.622;23.194;2023-04-03T04:37:24;1.30;;;1.30;;
5951;SDS011;3001;42.622;23.194;2023-04-03T04:39:51;1.40;;;1.40;;
5951;SDS011;3001;42.622;23.194;2023-04-03T04:42:20;2.63;;;1.30;;
5951;SDS011;3001;42.622;23.194;2023-04-03T04:44:47;1.33;;;1.33;;
5951;SDS011;3001;42.622;23.194;2023-04-03T04:47:14;2.00;;;1.90;;
5951;SDS011;3001;42.622;23.194;2023-04-03T04:49:41;1.57;;;1.57;;
5951;SDS011;3001;42.622;23.194;2023-04-03T04:52:07;1.87;;;1.70;;
5951;SDS011;3001;42.622;23.194;2023-04-03T04:54:34;1.50;;;1.50;;
5951;SDS011;3001;42.622;23.194;2023-04-03T04:57:01;1.23;;;1.20;;
5951;SDS011;3001;42.622;23.194;2023-04-03T04:59:29;1.40;;;1.40;;
5951;SDS011;3001;42.622;23.194;2023-04-03T05:01:56;1.60;;;1.50;;
5951;SDS011;3001;42.622;23.194;2023-04-03T05:04:22;2.00;;;1.90;;
5951;SDS011;3001;42.622;23.194;2023-04-03T05:06:49;1.60;;;1.50;;
5951;SDS011;3001;42.622;23.194;2023-04-03T05:09:16;1.80;;;1.70;;
5951;SDS011;3001;42.622;23.194;2023-04-03T05:11:43;1.50;;;1.50;;
5951;SDS011;3001;42.622;23.194;2023-04-03T05:14:09;1.70;;;1.53;;
5951;SDS011;3001;42.622;23.194;2023-04-03T05:16:38;1.60;;;1.50;;
5951;SDS011;3001;42.622;23.194;2023-04-03T05:19:05;1.97;;;1.80;;
5951;SDS011;3001;42.622;23.194;2023-04-03T05:21:31;1.80;;;1.70;;
5951;SDS011;3001;42.622;23.194;2023-04-03T05:23:58;1.87;;;1.77;;
5951;SDS011;3001;42.622;23.194;2023-04-03T05:26:27;2.60;;;2.00;;
5951;SDS011;3001;42.622;23.194;2023-04-03T05:28:55;3.20;;;3.00;;
5951;SDS011;3001;42.622;23.194;2023-04-03T05:31:22;4.77;;;4.47;;
5951;SDS011;3001;42.622;23.194;2023-04-03T05:33:51;3.83;;;3.60;;
5951;SDS011;3001;42.622;23.194;2023-04-03T05:36:18;6.30;;;5.90;;
5951;SDS011;3001;42.622;23.194;2023-04-03T05:38:45;5.40;;;5.00;;
5951;SDS011;3001;42.622;23.194;2023-04-03T05:41:12;5.93;;;4.87;;
5951;SDS011;3001;42.622;23.194;2023-04-03T05:43:38;5.13;;;4.73;;
5951;SDS011;3001;42.622;23.194;2023-04-03T05:46:08;5.47;;;5.07;;
5951;SDS011;3001;42.622;23.194;2023-04-03T05:48:36;5.37;;;4.73;;
5951;SDS011;3001;42.622;23.194;2023-04-03T05:51:05;5.10;;;4.70;;
5951;SDS011;3001;42.622;23.194;2023-04-03T05:53:34;4.60;;;4.30;;
5951;SDS011;3001;42.622;23.194;2023-04-03T05:56:02;3.77;;;3.57;;
5951;SDS011;3001;42.622;23.194;2023-04-03T05:58:29;3.27;;;3.07;;
5951;SDS011;3001;42.622;23.194;2023-04-03T06:00:56;2.43;;;2.17;;
5951;SDS011;3001;42.622;23.194;2023-04-03T06:03:23;2.20;;;2.10;;
5951;SDS011;3001;42.622;23.194;2023-04-03T06:05:50;2.70;;;2.50;;
5951;SDS011;3001;42.622;23.194;2023-04-03T06:08:18;2.63;;;2.53;;
5951;SDS011;3001;42.622;23.194;2023-04-03T06:10:45;2.43;;;2.33;;
5951;SDS011;3001;42.622;23.194;2023-04-03T06:13:11;2.60;;;2.50;;
5951;SDS011;3001;42.622;23.194;2023-04-03T06:15:38;2.90;;;2.70;;
5951;SDS011;3001;42.622;23.194;2023-04-03T06:18:05;2.27;;;2.17;;
5951;SDS011;3001;42.622;23.194;2023-04-03T06:20:33;2.23;;;2.13;;
5951;SDS011;3001;42.622;23.194;2023-04-03T06:23:00;2.00;;;1.90;;
5951;SDS011;3001;42.622;23.194;2023-04-03T06:25:28;2.03;;;1.93;;
5951;SDS011;3001;42.622;23.194;2023-04-03T06:27:56;1.93;;;1.83;;
5951;SDS011;3001;42.622;23.194;2023-04-03T06:30:23;2.00;;;1.90;;
5951;SDS011;3001;42.622;23.194;2023-04-03T06:32:50;2.87;;;2.57;;
5951;SDS011;3001;42.622;23.194;2023-04-03T06:35:17;2.80;;;2.60;;
5951;SDS011;3001;42.622;23.194;2023-04-03T06:37:44;2.50;;;2.30;;
5951;SDS011;3001;42.622;23.194;2023-04-03T06:40:12;2.27;;;2.17;;
5951;SDS011;3001;42.622;23.194;2023-04-03T06:42:45;1.97;;;1.87;;
5951;SDS011;3001;42.622;23.194;2023-04-03T06:45:12;2.17;;;2.07;;
5951;SDS011;3001;42.622;23.194;2023-04-03T06:47:40;2.67;;;2.27;;
5951;SDS011;3001;42.622;23.194;2023-04-03T06:50:07;2.60;;;2.40;;
5951;SDS011;3001;42.622;23.194;2023-04-03T06:52:36;2.50;;;1.90;;
5951;SDS011;3001;42.622;23.194;2023-04-03T06:55:05;2.03;;;1.93;;
5951;SDS011;3001;42.622;23.194;2023-04-03T06:57:32;2.93;;;2.73;;
5951;SDS011;3001;42.622;23.194;2023-04-03T07:00:00;2.90;;;2.70;;
5951;SDS011;3001;42.622;23.194;2023-04-03T07:02:29;2.67;;;2.53;;
5951;SDS011;3001;42.622;23.194;2023-04-03T07:04:55;2.83;;;2.43;;
5951;SDS011;3001;42.622;23.194;2023-04-03T07:07:22;3.30;;;2.40;;
5951;SDS011;3001;42.622;23.194;2023-04-03T07:09:49;2.37;;;2.27;;
5951;SDS011;3001;42.622;23.194;2023-04-03T07:12:16;2.10;;;2.00;;
5951;SDS011;3001;42.622;23.194;2023-04-03T07:14:43;2.20;;;2.10;;
5951;SDS011;3001;42.622;23.194;2023-04-03T07:17:11;2.60;;;2.40;;
5951;SDS011;3001;42.622;23.194;2023-04-03T07:19:37;2.23;;;2.13;;
5951;SDS011;3001;42.622;23.194;2023-04-03T07:22:04;3.20;;;2.40;;
5951;SDS011;3001;42.622;23.194;2023-04-03T07:24:31;2.63;;;2.53;;
5951;SDS011;3001;42.622;23.194;2023-04-03T07:26:57;5.03;;;2.33;;
5951;SDS011;3001;42.622;23.194;2023-04-03T07:29:24;2.80;;;2.60;;
5951;SDS011;3001;42.622;23.194;2023-04-03T07:31:51;2.43;;;2.33;;
5951;SDS011;3001;42.622;23.194;2023-04-03T07:34:19;2.83;;;2.70;;
5951;SDS011;3001;42.622;23.194;2023-04-03T07:36:46;2.80;;;2.60;;
5951;SDS011;3001;42.622;23.194;2023-04-03T07:39:12;2.20;;;2.10;;
5951;SDS011;3001;42.622;23.194;2023-04-03T07:41:39;2.70;;;2.50;;
5951;SDS011;3001;42.622;23.194;2023-04-03T07:44:06;2.70;;;2.50;;
5951;SDS011;3001;42.622;23.194;2023-04-03T07:46:34;2.53;;;2.33;;
5951;SDS011;3001;42.622;23.194;2023-04-03T07:49:01;3.43;;;2.30;;
5951;SDS011;3001;42.622;23.194;2023-04-03T07:51:29;2.47;;;2.27;;
5951;SDS011;3001;42.622;23.194;2023-04-03T07:53:56;3.03;;;2.40;;
5951;SDS011;3001;42.622;23.194;2023-04-03T07:56:22;3.00;;;2.20;;
5951;SDS011;3001;42.622;23.194;2023-04-03T07:58:50;1.80;;;1.70;;
5951;SDS011;3001;42.622;23.194;2023-04-03T08:01:16;2.10;;;1.97;;
5951;SDS011;3001;42.622;23.194;2023-04-03T08:03:43;1.80;;;1.70;;
5951;SDS011;3001;42.622;23.194;2023-04-03T08:06:10;1.90;;;1.80;;
5951;SDS011;3001;42.622;23.194;2023-04-03T08:08:40;2.27;;;2.17;;
5951;SDS011;3001;42.622;23.194;2023-04-03T08:11:07;1.60;;;1.60;;
5951;SDS011;3001;42.622;23.194;2023-04-03T08:13:34;2.20;;;2.10;;
5951;SDS011;3001;42.622;23.194;2023-04-03T08:16:07;2.07;;;1.97;;
5951;SDS011;3001;42.622;23.194;2023-04-03T08:18:34;1.90;;;1.83;;
5951;SDS011;3001;42.622;23.194;2023-04-03T08:21:04;2.17;;;2.07;;
5951;SDS011;3001;42.622;23.194;2023-04-03T08:23:32;3.60;;;2.30;;
5951;SDS011;3001;42.622;23.194;2023-04-03T08:26:00;2.43;;;2.33;;
5951;SDS011;3001;42.622;23.194;2023-04-03T08:28:31;3.50;;;3.20;;
5951;SDS011;3001;42.622;23.194;2023-04-03T08:31:01;3.73;;;3.53;;
5951;SDS011;3001;42.622;23.194;2023-04-03T08:33:29;4.60;;;4.27;;
5951;SDS011;3001;42.622;23.194;2023-04-03T08:35:56;4.07;;;3.77;;
5951;SDS011;3001;42.622;23.194;2023-04-03T08:38:22;4.67;;;4.37;;
5951;SDS011;3001;42.622;23.194;2023-04-03T08:41:00;4.90;;;4.60;;
5951;SDS011;3001;42.622;23.194;2023-04-03T08:43:35;6.20;;;4.70;;
5951;SDS011;3001;42.622;23.194;2023-04-03T08:46:06;15.03;;;8.07;;
5951;SDS011;3001;42.622;23.194;2023-04-03T08:48:40;7.40;;;5.43;;
5951;SDS011;3001;42.622;23.194;2023-04-03T08:51:10;4.80;;;4.40;;
5951;SDS011;3001;42.622;23.194;2023-04-03T08:53:42;4.47;;;4.13;;
5951;SDS011;3001;42.622;23.194;2023-04-03T08:56:14;5.03;;;4.10;;
5951;SDS011;3001;42.622;23.194;2023-04-03T08:58:45;7.57;;;4.80;;
5951;SDS011;3001;42.622;23.194;2023-04-03T09:01:17;5.40;;;5.10;;
5951;SDS011;3001;42.622;23.194;2023-04-03T09:03:46;5.23;;;4.83;;
5951;SDS011;3001;42.622;23.194;2023-04-03T09:06:13;5.63;;;5.03;;
5951;SDS011;3001;42.622;23.194;2023-04-03T09:08:43;5.77;;;5.37;;
5951;SDS011;3001;42.622;23.194;2023-04-03T09:11:16;8.50;;;6.43;;
5951;SDS011;3001;42.622;23.194;2023-04-03T09:13:49;6.30;;;5.73;;
5951;SDS011;3001;42.622;23.194;2023-04-03T09:16:25;9.87;;;6.33;;
5951;SDS011;3001;42.622;23.194;2023-04-03T09:19:02;5.97;;;5.57;;
5951;SDS011;3001;42.622;23.194;2023-04-03T09:21:38;6.40;;;5.93;;
5951;SDS011;3001;42.622;23.194;2023-04-03T09:24:07;6.23;;;5.83;;
5951;SDS011;3001;42.622;23.194;2023-04-03T09:26:39;7.00;;;6.50;;
5951;SDS011;3001;42.622;23.194;2023-04-03T09:29:10;6.97;;;6.47;;
5951;SDS011;3001;42.622;23.194;2023-04-03T09:31:44;9.20;;;7.97;;
5951;SDS011;3001;42.622;23.194;2023-04-03T09:34:14;8.03;;;7.30;;
5951;SDS011;3001;42.622;23.194;2023-04-03T09:36:48;8.27;;;7.40;;
5951;SDS011;3001;42.622;23.194;2023-04-03T09:39:17;7.73;;;7.13;;
5951;SDS011;3001;42.622;23.194;2023-04-03T09:41:56;9.07;;;8.30;;
5951;SDS011;3001;42.622;23.194;2023-04-03T09:44:27;8.70;;;7.90;;
5951;SDS011;3001;42.622;23.194;2023-04-03T09:46:57;7.80;;;5.50;;
5951;SDS011;3001;42.622;23.194;2023-04-03T09:49:24;9.73;;;5.13;;
5951;SDS011;3001;42.622;23.194;2023-04-03T09:51:51;7.00;;;5.13;;
5951;SDS011;3001;42.622;23.194;2023-04-03T09:57:09;7.47;;;5.50;;
5951;SDS011;3001;42.622;23.194;2023-04-03T09:59:45;5.87;;;5.37;;
5951;SDS011;3001;42.622;23.194;2023-04-03T10:02:31;5.20;;;4.73;;
5951;SDS011;3001;42.622;23.194;2023-04-03T10:05:01;4.90;;;3.57;;
5951;SDS011;3001;42.622;23.194;2023-04-03T10:07:29;2.80;;;2.60;;
5951;SDS011;3001;42.622;23.194;2023-04-03T10:09:59;8.53;;;2.43;;
5951;SDS011;3001;42.622;23.194;2023-04-03T10:12:29;2.37;;;2.27;;
5951;SDS011;3001;42.622;23.194;2023-04-03T10:14:56;2.20;;;2.10;;
5951;SDS011;3001;42.622;23.194;2023-04-03T10:17:26;2.40;;;2.17;;
5951;SDS011;3001;42.622;23.194;2023-04-03T10:20:02;1.93;;;1.83;;
5951;SDS011;3001;42.622;23.194;2023-04-03T10:22:37;1.57;;;1.47;;
5951;SDS011;3001;42.622;23.194;2023-04-03T10:25:11;6.33;;;1.53;;
5951;SDS011;3001;42.622;23.194;2023-04-03T10:27:47;1.67;;;1.40;;
5951;SDS011;3001;42.622;23.194;2023-04-03T10:30:30;1.60;;;1.40;;
5951;SDS011;3001;42.622;23.194;2023-04-03T10:33:08;1.27;;;1.17;;
5951;SDS011;3001;42.622;23.194;2023-04-03T10:35:49;1.50;;;1.40;;
5951;SDS011;3001;42.622;23.194;2023-04-03T10:38:30;1.90;;;1.80;;
5951;SDS011;3001;42.622;23.194;2023-04-03T10:41:02;3.00;;;1.40;;
5951;SDS011;3001;42.622;23.194;2023-04-03T10:43:36;2.03;;;1.70;;
5951;SDS011;3001;42.622;23.194;2023-04-03T10:46:09;2.10;;;2.00;;
5951;SDS011;3001;42.622;23.194;2023-04-03T10:48:48;1.70;;;1.60;;
5951;SDS011;3001;42.622;23.194;2023-04-03T10:51:29;1.50;;;1.40;;
5951;SDS011;3001;42.622;23.194;2023-04-03T10:54:04;1.30;;;1.30;;
5951;SDS011;3001;42.622;23.194;2023-04-03T10:56:35;1.33;;;1.33;;
5951;SDS011;3001;42.622;23.194;2023-04-03T10:59:15;1.33;;;1.23;;
5951;SDS011;3001;42.622;23.194;2023-04-03T11:01:48;1.80;;;1.70;;
5951;SDS011;3001;42.622;23.194;2023-04-03T11:04:18;1.57;;;1.50;;
5951;SDS011;3001;42.622;23.194;2023-04-03T11:06:48;1.27;;;1.27;;
5951;SDS011;3001;42.622;23.194;2023-04-03T11:09:21;1.40;;;1.30;;
5951;SDS011;3001;42.622;23.194;2023-04-03T11:11:51;1.60;;;1.50;;
5951;SDS011;3001;42.622;23.194;2023-04-03T11:14:25;1.40;;;1.40;;
5951;SDS011;3001;42.622;23.194;2023-04-03T11:16:58;2.37;;;2.17;;
5951;SDS011;3001;42.622;23.194;2023-04-03T11:19:33;2.00;;;1.73;;
5951;SDS011;3001;42.622;23.194;2023-04-03T11:22:08;1.73;;;1.63;;
5951;SDS011;3001;42.622;23.194;2023-04-03T11:24:41;1.83;;;1.73;;
5951;SDS011;3001;42.622;23.194;2023-04-03T11:27:11;2.00;;;1.90;;
5951;SDS011;3001;42.622;23.194;2023-04-03T11:29:48;2.20;;;2.10;;
5951;SDS011;3001;42.622;23.194;2023-04-03T11:32:26;2.53;;;2.10;;
5951;SDS011;3001;42.622;23.194;2023-04-03T11:35:04;3.30;;;3.10;;
5951;SDS011;3001;42.622;23.194;2023-04-03T11:37:34;2.10;;;2.00;;
5951;SDS011;3001;42.622;23.194;2023-04-03T11:40:04;2.73;;;2.63;;
5951;SDS011;3001;42.622;23.194;2023-04-03T11:42:36;2.90;;;2.80;;
5951;SDS011;3001;42.622;23.194;2023-04-03T11:45:24;2.50;;;2.40;;
5951;SDS011;3001;42.622;23.194;2023-04-03T11:47:56;2.67;;;2.47;;
5951;SDS011;3001;42.622;23.194;2023-04-03T11:50:32;3.00;;;2.80;;
5951;SDS011;3001;42.622;23.194;2023-04-03T11:56:00;4.33;;;3.40;;
5951;SDS011;3001;42.622;23.194;2023-04-03T11:58:32;4.00;;;3.70;;
5951;SDS011;3001;42.622;23.194;2023-04-03T12:01:01;4.13;;;3.93;;
5951;SDS011;3001;42.622;23.194;2023-04-03T12:06:43;3.50;;;3.30;;
5951;SDS011;3001;42.622;23.194;2023-04-03T12:09:28;3.90;;;3.70;;
5951;SDS011;3001;42.622;23.194;2023-04-03T12:12:00;3.97;;;3.67;;
5951;SDS011;3001;42.622;23.194;2023-04-03T12:14:46;4.80;;;4.03;;
5951;SDS011;3001;42.622;23.194;2023-04-03T12:17:19;3.80;;;3.60;;
5951;SDS011;3001;42.622;23.194;2023-04-03T12:19:49;4.27;;;4.07;;
5951;SDS011;3001;42.622;23.194;2023-04-03T12:22:16;4.67;;;4.30;;
5951;SDS011;3001;42.622;23.194;2023-04-03T12:24:46;4.60;;;4.20;;
5951;SDS011;3001;42.622;23.194;2023-04-03T12:27:20;4.30;;;4.10;;
5951;SDS011;3001;42.622;23.194;2023-04-03T12:29:55;4.53;;;4.23;;
5951;SDS011;3001;42.622;23.194;2023-04-03T12:32:34;4.30;;;3.90;;
5951;SDS011;3001;42.622;23.194;2023-04-03T12:35:14;2.73;;;2.63;;
5951;SDS011;3001;42.622;23.194;2023-04-03T12:41:04;3.67;;;3.47;;
5951;SDS011;3001;42.622;23.194;2023-04-03T12:43:47;4.30;;;4.00;;
5951;SDS011;3001;42.622;23.194;2023-04-03T12:46:26;3.40;;;3.20;;
5951;SDS011;3001;42.622;23.194;2023-04-03T12:49:01;3.70;;;3.40;;
5951;SDS011;3001;42.622;23.194;2023-04-03T12:51:30;3.17;;;2.80;;
5951;SDS011;3001;42.622;23.194;2023-04-03T12:54:04;1.93;;;1.83;;
5951;SDS011;3001;42.622;23.194;2023-04-03T12:56:42;3.20;;;2.40;;
5951;SDS011;3001;42.622;23.194;2023-04-03T12:59:15;2.40;;;2.30;;
5951;SDS011;3001;42.622;23.194;2023-04-03T13:01:45;2.30;;;2.20;;
5951;SDS011;3001;42.622;23.194;2023-04-03T13:04:21;1.63;;;1.57;;
5951;SDS011;3001;42.622;23.194;2023-04-03T13:06:48;2.30;;;2.20;;
5951;SDS011;3001;42.622;23.194;2023-04-03T13:09:20;2.60;;;2.20;;
5951;SDS011;3001;42.622;23.194;2023-04-03T13:11:48;2.40;;;2.30;;
5951;SDS011;3001;42.622;23.194;2023-04-03T13:14:18;2.50;;;2.40;;
5951;SDS011;3001;42.622;23.194;2023-04-03T13:16:53;2.17;;;2.07;;
5951;SDS011;3001;42.622;23.194;2023-04-03T13:19:24;2.80;;;2.60;;
5951;SDS011;3001;42.622;23.194;2023-04-03T13:21:54;3.07;;;2.77;;
5951;SDS011;3001;42.622;23.194;2023-04-03T13:24:25;4.33;;;2.77;;
5951;SDS011;3001;42.622;23.194;2023-04-03T13:26:54;3.20;;;3.10;;
5951;SDS011;3001;42.622;23.194;2023-04-03T13:29:23;3.40;;;3.20;;
5951;SDS011;3001;42.622;23.194;2023-04-03T13:31:53;3.77;;;3.30;;
5951;SDS011;3001;42.622;23.194;2023-04-03T13:34:22;4.07;;;3.77;;
5951;SDS011;3001;42.622;23.194;2023-04-03T13:36:57;3.53;;;3.30;;
5951;SDS011;3001;42.622;23.194;2023-04-03T13:39:25;2.13;;;2.00;;
5951;SDS011;3001;42.622;23.194;2023-04-03T13:41:54;2.53;;;2.43;;
5951;SDS011;3001;42.622;23.194;2023-04-03T13:44:26;2.70;;;2.23;;
5951;SDS011;3001;42.622;23.194;2023-04-03T13:46:57;2.80;;;1.80;;
5951;SDS011;3001;42.622;23.194;2023-04-03T13:49:32;2.63;;;2.53;;
5951;SDS011;3001;42.622;23.194;2023-04-03T13:52:00;2.57;;;2.43;;
5951;SDS011;3001;42.622;23.194;2023-04-03T13:54:29;2.23;;;2.13;;
5951;SDS011;3001;42.622;23.194;2023-04-03T13:57:00;3.40;;;3.10;;
5951;SDS011;3001;42.622;23.194;2023-04-03T13:59:28;3.47;;;2.37;;
5951;SDS011;3001;42.622;23.194;2023-04-03T14:02:09;2.13;;;2.03;;
5951;SDS011;3001;42.622;23.194;2023-04-03T14:04:52;3.17;;;2.97;;
5951;SDS011;3001;42.622;23.194;2023-04-03T14:07:23;2.40;;;2.30;;
5951;SDS011;3001;42.622;23.194;2023-04-03T14:09:51;2.80;;;2.60;;
5951;SDS011;3001;42.622;23.194;2023-04-03T14:12:21;2.10;;;1.90;;
5951;SDS011;3001;42.622;23.194;2023-04-03T14:14:53;2.10;;;2.00;;
5951;SDS011;3001;42.622;23.194;2023-04-03T14:17:22;2.13;;;2.03;;
5951;SDS011;3001;42.622;23.194;2023-04-03T14:19:53;3.47;;;2.03;;
5951;SDS011;3001;42.622;23.194;2023-04-03T14:22:23;2.10;;;2.00;;
5951;SDS011;3001;42.622;23.194;2023-04-03T14:24:51;2.10;;;2.00;;
5951;SDS011;3001;42.622;23.194;2023-04-03T14:27:19;1.50;;;1.50;;
5951;SDS011;3001;42.622;23.194;2023-04-03T14:29:48;1.70;;;1.60;;
5951;SDS011;3001;42.622;23.194;2023-04-03T14:32:16;1.77;;;1.67;;
5951;SDS011;3001;42.622;23.194;2023-04-03T14:34:45;1.47;;;1.37;;
5951;SDS011;3001;42.622;23.194;2023-04-03T14:37:14;1.60;;;1.60;;
5951;SDS011;3001;42.622;23.194;2023-04-03T14:39:43;2.20;;;1.50;;
5951;SDS011;3001;42.622;23.194;2023-04-03T14:42:11;1.20;;;1.20;;
5951;SDS011;3001;42.622;23.194;2023-04-03T14:44:39;1.97;;;1.87;;
5951;SDS011;3001;42.622;23.194;2023-04-03T14:47:09;3.07;;;2.83;;
5951;SDS011;3001;42.622;23.194;2023-04-03T14:49:37;3.47;;;3.27;;
5951;SDS011;3001;42.622;23.194;2023-04-03T14:52:04;3.87;;;3.50;;
5951;SDS011;3001;42.622;23.194;2023-04-03T14:54:32;2.53;;;2.43;;
5951;SDS011;3001;42.622;23.194;2023-04-03T14:56:59;2.30;;;1.87;;
5951;SDS011;3001;42.622;23.194;2023-04-03T14:59:27;1.73;;;1.63;;
5951;SDS011;3001;42.622;23.194;2023-04-03T15:01:56;2.47;;;2.37;;
5951;SDS011;3001;42.622;23.194;2023-04-03T15:04:22;1.80;;;1.70;;
5951;SDS011;3001;42.622;23.194;2023-04-03T15:06:50;1.80;;;1.70;;
5951;SDS011;3001;42.622;23.194;2023-04-03T15:09:19;1.27;;;1.23;;
5951;SDS011;3001;42.622;23.194;2023-04-03T15:11:48;2.30;;;2.20;;
5951;SDS011;3001;42.622;23.194;2023-04-03T15:14:17;1.73;;;1.63;;
5951;SDS011;3001;42.622;23.194;2023-04-03T15:16:44;1.80;;;1.70;;
5951;SDS011;3001;42.622;23.194;2023-04-03T15:19:11;3.67;;;3.43;;
5951;SDS011;3001;42.622;23.194;2023-04-03T15:21:38;2.90;;;2.60;;
5951;SDS011;3001;42.622;23.194;2023-04-03T15:24:05;2.97;;;2.77;;
5951;SDS011;3001;42.622;23.194;2023-04-03T15:26:32;3.23;;;3.03;;
5951;SDS011;3001;42.622;23.194;2023-04-03T15:29:00;2.13;;;1.80;;
5951;SDS011;3001;42.622;23.194;2023-04-03T15:31:28;1.67;;;1.57;;
5951;SDS011;3001;42.622;23.194;2023-04-03T15:33:55;2.60;;;2.40;;